createdAt,value
2023-02-12T13:58:41.096Z,6.82
2023-02-12T14:01:11.790Z,10.25
2023-02-12T14:03:39.207Z,10.10
2023-02-12T14:06:17.206Z,12.20
2023-02-12T14:09:08.421Z,8.57
2023-02-12T14:11:48.521Z,10.82
2023-02-12T14:14:26.931Z,11.60
2023-02-12T14:16:53.538Z,12.93
2023-02-12T14:19:41.550Z,14.93
2023-02-12T14:22:35.885Z,12.63
2023-02-12T14:25:25.262Z,13.63
2023-02-12T14:28:26.335Z,12.52
2023-02-12T14:31:28.012Z,13.07
2023-02-12T14:34:07.492Z,12.07
2023-02-12T14:36:38.906Z,12.32
2023-02-12T14:39:20.971Z,13.07
2023-02-12T14:42:09.543Z,13.38
2023-02-12T14:44:36.094Z,13.80
2023-02-12T14:47:17.327Z,11.52
2023-02-12T14:49:52.920Z,14.27
2023-02-12T14:52:25.357Z,15.43
2023-02-12T14:54:56.518Z,15.50
2023-02-12T14:57:33.680Z,16.40
2023-02-12T15:00:23.933Z,16.00
2023-02-12T15:03:09.404Z,14.63
2023-02-12T15:05:52.559Z,14.18
2023-02-12T15:08:46.730Z,12.82
2023-02-12T15:11:22.291Z,14.60
2023-02-12T15:14:03.689Z,14.48
2023-02-12T15:16:56.543Z,12.40
2023-02-12T15:19:50.748Z,12.52
2023-02-12T15:22:22.335Z,15.43
2023-02-12T15:24:49.475Z,15.27
2023-02-12T15:27:17.515Z,15.18
2023-02-12T15:29:51.546Z,13.40
2023-02-12T15:32:24.662Z,15.40
2023-02-12T15:34:52.577Z,14.05
2023-02-12T15:37:31.416Z,14.02
2023-02-12T15:40:05.558Z,13.77
2023-02-12T15:42:33.642Z,13.88
2023-02-12T15:45:19.877Z,13.77
2023-02-12T15:48:05.338Z,14.10
2023-02-12T15:50:33.146Z,11.15
2023-02-12T15:53:00.248Z,11.73
2023-02-12T15:55:30.540Z,11.80
2023-02-12T15:58:00.087Z,12.20
2023-02-12T16:00:39.060Z,8.82
2023-02-12T16:03:06.629Z,11.18
2023-02-12T16:05:35.377Z,12.10
2023-02-12T16:08:02.386Z,14.00
2023-02-12T16:10:29.193Z,11.85
2023-02-12T16:12:55.922Z,9.85
2023-02-12T16:15:34.735Z,11.30
2023-02-12T16:18:04.264Z,12.30
2023-02-12T16:20:31.907Z,12.38
2023-02-12T16:23:01.756Z,10.20
2023-02-12T16:25:32.523Z,12.25
2023-02-12T16:28:07.494Z,12.13
2023-02-12T16:30:42.962Z,12.32
2023-02-12T16:33:34.397Z,12.38
2023-02-12T16:36:07.152Z,11.55
2023-02-12T16:38:44.102Z,11.93
2023-02-12T16:41:25.523Z,11.40
2023-02-12T16:44:01.704Z,11.32
2023-02-12T16:46:31.431Z,11.35
2023-02-12T16:49:00.701Z,11.65
2023-02-12T16:51:32.170Z,11.90
2023-02-12T16:54:00.964Z,12.00
2023-02-12T16:57:02.245Z,11.02
2023-02-12T16:59:29.274Z,11.57
2023-02-12T17:02:00.586Z,11.05
2023-02-12T17:04:30.200Z,11.50
2023-02-12T17:06:58.054Z,12.07
2023-02-12T17:09:24.679Z,11.48
2023-02-12T17:11:51.302Z,11.48
2023-02-12T17:14:19.864Z,11.55
2023-02-12T17:16:47.599Z,11.85
2023-02-12T17:19:14.723Z,11.40
2023-02-12T17:21:44.379Z,12.40
2023-02-12T17:24:23.433Z,12.45
2023-02-12T17:26:53.979Z,12.45
2023-02-12T17:29:24.093Z,12.25
2023-02-12T17:31:54.575Z,12.75
2023-02-12T17:34:22.095Z,12.57
2023-02-12T17:36:50.085Z,11.38
2023-02-12T17:39:17.765Z,11.02
2023-02-12T17:41:45.240Z,10.82
2023-02-12T17:44:14.026Z,11.30
2023-02-12T17:46:40.894Z,11.45
2023-02-12T17:49:07.530Z,8.30
2023-02-12T17:51:34.066Z,10.32
2023-02-12T17:54:00.795Z,9.00
2023-02-12T17:56:28.893Z,10.52
2023-02-12T17:58:55.481Z,11.00
2023-02-12T18:01:23.878Z,11.55
2023-02-12T18:03:53.227Z,10.30
2023-02-12T18:06:30.235Z,11.52
2023-02-12T18:08:58.715Z,10.85
2023-02-12T18:11:26.007Z,8.60
2023-02-12T18:13:54.062Z,9.88
2023-02-12T18:16:21.224Z,10.20
2023-02-12T18:18:48.513Z,10.00
2023-02-12T18:21:16.274Z,9.30
2023-02-12T18:23:43.689Z,11.70
2023-02-12T18:26:13.488Z,10.50
2023-02-12T18:28:40.212Z,10.30
2023-02-12T18:31:07.332Z,7.15
2023-02-12T18:33:34.784Z,11.10
2023-02-12T18:36:10.424Z,10.25
2023-02-12T18:38:38.800Z,10.55
2023-02-12T18:41:14.896Z,11.50
2023-02-12T18:43:43.822Z,10.68
2023-02-12T18:46:22.597Z,11.73
2023-02-12T18:48:49.967Z,12.85
2023-02-12T18:51:21.142Z,11.75
2023-02-12T18:53:48.870Z,12.60
2023-02-12T18:56:20.082Z,11.82
2023-02-12T18:58:46.686Z,11.63
2023-02-12T19:01:23.949Z,10.40
2023-02-12T19:04:01.270Z,12.38
2023-02-12T19:06:34.057Z,12.25
2023-02-12T19:09:03.324Z,11.90
2023-02-12T19:11:30.965Z,11.45
2023-02-12T19:13:57.885Z,12.75
2023-02-12T19:16:25.215Z,11.82
2023-02-12T19:18:58.225Z,11.80
2023-02-12T19:21:26.453Z,10.20
2023-02-12T19:23:58.580Z,12.38
2023-02-12T19:26:26.388Z,12.05
2023-02-12T19:28:53.156Z,12.35
2023-02-12T19:31:22.820Z,13.40
2023-02-12T19:33:53.833Z,12.75
2023-02-12T19:36:20.982Z,11.77
2023-02-12T19:38:50.979Z,12.82
2023-02-12T19:41:24.553Z,11.88
2023-02-12T19:43:58.245Z,12.25
2023-02-12T19:46:31.771Z,11.30
2023-02-12T19:49:02.441Z,11.02
2023-02-12T19:51:30.330Z,11.10
2023-02-12T19:54:09.982Z,10.10
2023-02-12T19:56:41.078Z,8.25
2023-02-12T19:59:08.902Z,9.27
2023-02-12T20:01:36.686Z,9.32
2023-02-12T20:04:03.637Z,8.60
2023-02-12T20:06:38.014Z,9.25
2023-02-12T20:09:07.021Z,9.35
2023-02-12T20:11:38.567Z,8.13
2023-02-12T20:14:11.395Z,7.30
2023-02-12T20:16:43.796Z,6.70
2023-02-12T20:19:26.184Z,4.82
2023-02-12T20:21:57.045Z,6.03
2023-02-12T20:24:26.129Z,5.57
2023-02-12T20:26:53.547Z,4.90
2023-02-12T20:29:20.618Z,6.82
2023-02-12T20:31:50.240Z,6.10
2023-02-12T20:34:18.771Z,5.93
2023-02-12T20:36:47.373Z,5.68
2023-02-12T20:39:17.312Z,6.10
2023-02-12T20:41:44.323Z,6.00
2023-02-12T20:44:17.152Z,6.25
2023-02-12T20:46:48.756Z,6.05
2023-02-12T20:49:17.885Z,5.97
2023-02-12T20:51:45.746Z,4.72
2023-02-12T20:54:12.784Z,4.20
2023-02-12T20:56:43.086Z,5.43
2023-02-12T20:59:10.968Z,4.10
2023-02-12T21:01:40.281Z,3.90
2023-02-12T21:04:09.726Z,5.32
2023-02-12T21:06:36.879Z,5.05
2023-02-12T21:09:03.580Z,4.85
2023-02-12T21:11:31.085Z,5.75
2023-02-12T21:14:18.557Z,5.45
2023-02-12T21:16:46.145Z,5.70
2023-02-12T21:19:14.128Z,3.97
2023-02-12T21:21:42.335Z,4.95
2023-02-12T21:24:13.059Z,4.93
2023-02-12T21:26:40.119Z,5.05
2023-02-12T21:29:06.684Z,4.18
2023-02-12T21:31:38.045Z,4.28
2023-02-12T21:34:06.896Z,3.53
2023-02-12T21:36:37.401Z,4.55
2023-02-12T21:39:06.018Z,4.35
2023-02-12T21:41:35.684Z,4.18
2023-02-12T21:44:09.135Z,3.92
2023-02-12T21:46:36.213Z,3.83
2023-02-12T21:49:04.019Z,3.80
2023-02-12T21:51:49.267Z,3.95
2023-02-12T21:54:15.938Z,3.38
2023-02-12T21:56:47.394Z,2.47
2023-02-12T21:59:14.554Z,3.55
2023-02-12T22:01:47.374Z,3.15
2023-02-12T22:04:14.261Z,3.75
2023-02-12T22:06:47.154Z,3.40
2023-02-12T22:09:15.991Z,3.40
2023-02-12T22:11:43.439Z,2.83
2023-02-12T22:14:14.288Z,2.97
2023-02-12T22:16:41.210Z,2.70
2023-02-12T22:19:07.988Z,3.20
2023-02-12T22:21:37.337Z,2.70
2023-02-12T22:24:06.624Z,2.80
2023-02-12T22:26:33.728Z,2.00
2023-02-12T22:29:05.268Z,2.25
2023-02-12T22:31:35.139Z,2.25
2023-02-12T22:34:05.407Z,2.03
2023-02-12T22:36:36.344Z,1.90
2023-02-12T22:39:04.010Z,2.10
2023-02-12T22:41:31.164Z,2.17
2023-02-12T22:44:05.871Z,1.65
2023-02-12T22:46:33.326Z,1.90
2023-02-12T22:49:00.226Z,2.08
2023-02-12T22:51:32.057Z,1.48
2023-02-12T22:53:59.361Z,2.25
2023-02-12T22:56:27.455Z,2.40
2023-02-12T22:59:02.919Z,2.28
2023-02-12T23:01:31.082Z,1.98
2023-02-12T23:03:57.875Z,1.90
2023-02-12T23:06:28.245Z,2.13
2023-02-12T23:08:59.006Z,2.22
2023-02-12T23:11:28.205Z,1.90
2023-02-12T23:13:56.206Z,2.05
2023-02-12T23:16:23.594Z,1.83
2023-02-12T23:18:58.689Z,2.10
2023-02-12T23:21:26.705Z,2.42
2023-02-12T23:23:53.588Z,1.40
2023-02-12T23:26:21.057Z,2.40
2023-02-12T23:28:47.716Z,2.10
2023-02-12T23:31:14.587Z,2.00
2023-02-12T23:33:41.553Z,2.58
2023-02-12T23:36:08.563Z,2.50
2023-02-12T23:38:35.126Z,2.28
2023-02-12T23:41:01.752Z,2.08
2023-02-12T23:43:28.449Z,2.45
2023-02-12T23:45:55.053Z,2.10
2023-02-12T23:48:22.446Z,2.25
2023-02-12T23:50:50.032Z,2.40
2023-02-12T23:53:18.293Z,2.45
2023-02-12T23:55:45.701Z,2.33
2023-02-12T23:58:12.371Z,2.55
